sensor_id;sensor_type;location;lat;lon;timestamp;pressure;altitude;pressure_sealevel;temperature;humidity
70954;BME280;58618;47.490;8.736;2022-10-17T00:01:34;97182.56;;;10.29;100.00
70954;BME280;58618;47.490;8.736;2022-10-17T00:04:21;97169.66;;;10.19;100.00
70954;BME280;58618;47.490;8.736;2022-10-17T00:07:08;97186.22;;;10.43;100.00
70954;BME280;58618;47.490;8.736;2022-10-17T00:09:56;97175.31;;;10.26;100.00
70954;BME280;58618;47.490;8.736;2022-10-17T00:12:43;97196.47;;;10.23;100.00
70954;BME280;58618;47.490;8.736;2022-10-17T00:15:31;97197.47;;;10.17;100.00
70954;BME280;58618;47.490;8.736;2022-10-17T00:18:20;97201.09;;;10.26;100.00
70954;BME280;58618;47.490;8.736;2022-10-17T00:21:14;97197.53;;;10.32;100.00
70954;BME280;58618;47.490;8.736;2022-10-17T00:24:01;97173.81;;;10.25;100.00
70954;BME280;58618;47.490;8.736;2022-10-17T00:26:49;97203.19;;;10.24;100.00
70954;BME280;58618;47.490;8.736;2022-10-17T00:29:36;97191.22;;;10.03;100.00
70954;BME280;58618;47.490;8.736;2022-10-17T00:32:23;97203.13;;;10.14;100.00
70954;BME280;58618;47.490;8.736;2022-10-17T00:35:12;97200.59;;;10.19;100.00
70954;BME280;58618;47.490;8.736;2022-10-17T00:37:59;97196.38;;;10.08;100.00
70954;BME280;58618;47.490;8.736;2022-10-17T00:40:47;97198.41;;;10.06;100.00
70954;BME280;58618;47.490;8.736;2022-10-17T00:43:52;97202.00;;;10.00;100.00
70954;BME280;58618;47.490;8.736;2022-10-17T00:46:39;97201.50;;;10.03;100.00
70954;BME280;58618;47.490;8.736;2022-10-17T00:49:30;97203.56;;;10.06;100.00
70954;BME280;58618;47.490;8.736;2022-10-17T00:52:21;97188.09;;;10.01;100.00
70954;BME280;58618;47.490;8.736;2022-10-17T00:55:12;97185.00;;;9.99;100.00
70954;BME280;58618;47.490;8.736;2022-10-17T00:58:02;97197.91;;;10.04;100.00
70954;BME280;58618;47.490;8.736;2022-10-17T01:00:50;97195.06;;;10.05;100.00
70954;BME280;58618;47.490;8.736;2022-10-17T01:03:38;97195.38;;;10.09;100.00
70954;BME280;58618;47.490;8.736;2022-10-17T01:06:25;97190.22;;;10.09;100.00
70954;BME280;58618;47.490;8.736;2022-10-17T01:09:14;97196.84;;;10.00;100.00
70954;BME280;58618;47.490;8.736;2022-10-17T01:12:09;97186.47;;;9.85;100.00
70954;BME280;58618;47.490;8.736;2022-10-17T01:15:08;97190.78;;;9.74;100.00
70954;BME280;58618;47.490;8.736;2022-10-17T01:18:12;97184.34;;;9.71;100.00
70954;BME280;58618;47.490;8.736;2022-10-17T01:21:24;97196.28;;;9.88;100.00
70954;BME280;58618;47.490;8.736;2022-10-17T01:24:35;97189.03;;;9.85;100.00
70954;BME280;58618;47.490;8.736;2022-10-17T01:27:55;97191.09;;;9.78;100.00
70954;BME280;58618;47.490;8.736;2022-10-17T01:30:55;97199.88;;;9.82;100.00
70954;BME280;58618;47.490;8.736;2022-10-17T01:33:53;97188.50;;;9.78;100.00
70954;BME280;58618;47.490;8.736;2022-10-17T01:36:49;97198.81;;;9.78;100.00
70954;BME280;58618;47.490;8.736;2022-10-17T01:39:41;97192.53;;;9.63;100.00
70954;BME280;58618;47.490;8.736;2022-10-17T01:42:35;97186.78;;;9.46;100.00
70954;BME280;58618;47.490;8.736;2022-10-17T01:45:28;97189.88;;;9.48;100.00
70954;BME280;58618;47.490;8.736;2022-10-17T01:48:22;97182.69;;;9.50;100.00
70954;BME280;58618;47.490;8.736;2022-10-17T01:51:15;97190.94;;;9.57;100.00
70954;BME280;58618;47.490;8.736;2022-10-17T01:54:08;97187.56;;;9.52;100.00
70954;BME280;58618;47.490;8.736;2022-10-17T01:57:00;97174.34;;;9.38;100.00
70954;BME280;58618;47.490;8.736;2022-10-17T01:59:51;97195.03;;;9.48;100.00
70954;BME280;58618;47.490;8.736;2022-10-17T02:02:41;97189.06;;;9.43;100.00
70954;BME280;58618;47.490;8.736;2022-10-17T02:05:35;97173.31;;;9.34;100.00
70954;BME280;58618;47.490;8.736;2022-10-17T02:08:25;97187.75;;;9.40;100.00
70954;BME280;58618;47.490;8.736;2022-10-17T02:11:15;97187.97;;;9.33;100.00
70954;BME280;58618;47.490;8.736;2022-10-17T02:14:13;97192.63;;;9.37;100.00
70954;BME280;58618;47.490;8.736;2022-10-17T02:17:13;97195.38;;;9.25;100.00
70954;BME280;58618;47.490;8.736;2022-10-17T02:20:09;97197.06;;;9.09;100.00
70954;BME280;58618;47.490;8.736;2022-10-17T02:23:08;97198.19;;;9.23;100.00
70954;BME280;58618;47.490;8.736;2022-10-17T02:26:02;97195.66;;;9.28;100.00
70954;BME280;58618;47.490;8.736;2022-10-17T02:28:59;97172.66;;;9.17;100.00
70954;BME280;58618;47.490;8.736;2022-10-17T02:31:58;97185.09;;;9.25;100.00
70954;BME280;58618;47.490;8.736;2022-10-17T02:34:50;97172.63;;;9.12;100.00
70954;BME280;58618;47.490;8.736;2022-10-17T02:37:42;97181.41;;;9.16;100.00
70954;BME280;58618;47.490;8.736;2022-10-17T02:40:32;97184.97;;;9.15;100.00
70954;BME280;58618;47.490;8.736;2022-10-17T02:43:20;97170.56;;;9.09;100.00
70954;BME280;58618;47.490;8.736;2022-10-17T02:46:08;97170.72;;;8.97;100.00
70954;BME280;58618;47.490;8.736;2022-10-17T02:48:58;97188.22;;;9.00;100.00
70954;BME280;58618;47.490;8.736;2022-10-17T02:51:53;97182.84;;;9.02;100.00
70954;BME280;58618;47.490;8.736;2022-10-17T02:54:46;97191.84;;;9.04;100.00
70954;BME280;58618;47.490;8.736;2022-10-17T02:57:38;97167.91;;;8.99;100.00
70954;BME280;58618;47.490;8.736;2022-10-17T03:00:27;97192.00;;;8.87;100.00
70954;BME280;58618;47.490;8.736;2022-10-17T03:03:21;97194.56;;;8.87;100.00
70954;BME280;58618;47.490;8.736;2022-10-17T03:06:09;97195.56;;;8.86;100.00
70954;BME280;58618;47.490;8.736;2022-10-17T03:08:56;97194.41;;;8.72;100.00
70954;BME280;58618;47.490;8.736;2022-10-17T03:11:43;97201.53;;;8.65;100.00
70954;BME280;58618;47.490;8.736;2022-10-17T03:14:32;97199.31;;;8.74;100.00
70954;BME280;58618;47.490;8.736;2022-10-17T03:17:19;97207.66;;;8.86;100.00
70954;BME280;58618;47.490;8.736;2022-10-17T03:20:07;97193.69;;;8.77;100.00
70954;BME280;58618;47.490;8.736;2022-10-17T03:22:55;97203.28;;;8.86;100.00
70954;BME280;58618;47.490;8.736;2022-10-17T03:25:42;97201.13;;;8.52;100.00
70954;BME280;58618;47.490;8.736;2022-10-17T03:28:29;97183.88;;;8.47;100.00
70954;BME280;58618;47.490;8.736;2022-10-17T03:31:18;97206.19;;;8.68;100.00
70954;BME280;58618;47.490;8.736;2022-10-17T03:34:05;97214.72;;;8.74;100.00
70954;BME280;58618;47.490;8.736;2022-10-17T03:36:53;97220.66;;;8.74;100.00
70954;BME280;58618;47.490;8.736;2022-10-17T03:39:40;97228.31;;;8.69;100.00
70954;BME280;58618;47.490;8.736;2022-10-17T03:42:27;97225.28;;;8.72;100.00
70954;BME280;58618;47.490;8.736;2022-10-17T03:45:15;97226.47;;;8.65;100.00
70954;BME280;58618;47.490;8.736;2022-10-17T03:48:04;97230.34;;;8.67;100.00
70954;BME280;58618;47.490;8.736;2022-10-17T03:50:57;97233.19;;;8.66;100.00
70954;BME280;58618;47.490;8.736;2022-10-17T03:53:45;97240.13;;;8.65;100.00
70954;BME280;58618;47.490;8.736;2022-10-17T03:56:32;97244.19;;;8.61;100.00
70954;BME280;58618;47.490;8.736;2022-10-17T03:59:19;97245.72;;;8.62;100.00
70954;BME280;58618;47.490;8.736;2022-10-17T04:02:07;97233.84;;;8.56;100.00
70954;BME280;58618;47.490;8.736;2022-10-17T04:04:56;97259.69;;;8.66;100.00
70954;BME280;58618;47.490;8.736;2022-10-17T04:07:43;97249.47;;;8.50;100.00
70954;BME280;58618;47.490;8.736;2022-10-17T04:10:30;97241.50;;;8.51;100.00
70954;BME280;58618;47.490;8.736;2022-10-17T04:13:17;97252.91;;;8.60;100.00
70954;BME280;58618;47.490;8.736;2022-10-17T04:16:07;97246.66;;;8.51;100.00
70954;BME280;58618;47.490;8.736;2022-10-17T04:18:55;97254.09;;;8.53;100.00
70954;BME280;58618;47.490;8.736;2022-10-17T04:21:45;97253.81;;;8.49;100.00
70954;BME280;58618;47.490;8.736;2022-10-17T04:24:32;97247.34;;;8.46;100.00
70954;BME280;58618;47.490;8.736;2022-10-17T04:27:19;97266.13;;;8.47;100.00
70954;BME280;58618;47.490;8.736;2022-10-17T04:30:07;97260.75;;;8.48;100.00
70954;BME280;58618;47.490;8.736;2022-10-17T04:32:55;97261.19;;;8.40;100.00
70954;BME280;58618;47.490;8.736;2022-10-17T04:35:42;97260.41;;;8.40;100.00
70954;BME280;58618;47.490;8.736;2022-10-17T04:38:31;97266.00;;;8.37;100.00
70954;BME280;58618;47.490;8.736;2022-10-17T04:41:19;97262.28;;;8.28;100.00
70954;BME280;58618;47.490;8.736;2022-10-17T04:44:07;97271.00;;;8.27;100.00
70954;BME280;58618;47.490;8.736;2022-10-17T04:46:54;97283.94;;;8.32;100.00
70954;BME280;58618;47.490;8.736;2022-10-17T04:49:41;97280.66;;;8.36;100.00
70954;BME280;58618;47.490;8.736;2022-10-17T04:52:29;97280.44;;;8.38;100.00
70954;BME280;58618;47.490;8.736;2022-10-17T04:55:18;97278.41;;;8.40;100.00
70954;BME280;58618;47.490;8.736;2022-10-17T04:58:05;97292.25;;;8.39;100.00
70954;BME280;58618;47.490;8.736;2022-10-17T05:00:52;97276.47;;;8.30;100.00
70954;BME280;58618;47.490;8.736;2022-10-17T05:03:40;97285.00;;;8.36;100.00
70954;BME280;58618;47.490;8.736;2022-10-17T05:06:28;97283.94;;;8.32;100.00
70954;BME280;58618;47.490;8.736;2022-10-17T05:09:16;97286.28;;;8.33;100.00
70954;BME280;58618;47.490;8.736;2022-10-17T05:12:05;97286.00;;;8.30;100.00
70954;BME280;58618;47.490;8.736;2022-10-17T05:14:52;97287.53;;;8.31;100.00
70954;BME280;58618;47.490;8.736;2022-10-17T05:17:40;97289.53;;;8.29;100.00
70954;BME280;58618;47.490;8.736;2022-10-17T05:20:28;97285.34;;;8.23;100.00
70954;BME280;58618;47.490;8.736;2022-10-17T05:23:15;97284.72;;;8.16;100.00
70954;BME280;58618;47.490;8.736;2022-10-17T05:26:03;97280.53;;;8.10;100.00
70954;BME280;58618;47.490;8.736;2022-10-17T05:28:52;97289.28;;;8.09;100.00
70954;BME280;58618;47.490;8.736;2022-10-17T05:31:39;97290.03;;;8.09;100.00
70954;BME280;58618;47.490;8.736;2022-10-17T05:34:27;97292.16;;;8.12;100.00
70954;BME280;58618;47.490;8.736;2022-10-17T05:37:14;97292.22;;;8.00;100.00
70954;BME280;58618;47.490;8.736;2022-10-17T05:40:02;97286.94;;;8.07;100.00
70954;BME280;58618;47.490;8.736;2022-10-17T05:42:50;97296.56;;;8.17;100.00
70954;BME280;58618;47.490;8.736;2022-10-17T05:45:40;97289.41;;;8.19;100.00
70954;BME280;58618;47.490;8.736;2022-10-17T05:48:27;97290.41;;;8.18;100.00
70954;BME280;58618;47.490;8.736;2022-10-17T05:51:14;97292.50;;;8.21;100.00
70954;BME280;58618;47.490;8.736;2022-10-17T05:54:04;97304.91;;;8.24;100.00
70954;BME280;58618;47.490;8.736;2022-10-17T05:56:52;97303.50;;;8.33;100.00
70954;BME280;58618;47.490;8.736;2022-10-17T05:59:39;97317.41;;;8.37;100.00
70954;BME280;58618;47.490;8.736;2022-10-17T06:02:28;97324.75;;;8.45;100.00
70954;BME280;58618;47.490;8.736;2022-10-17T06:05:16;97312.34;;;8.42;100.00
70954;BME280;58618;47.490;8.736;2022-10-17T06:08:04;97320.66;;;8.49;100.00
70954;BME280;58618;47.490;8.736;2022-10-17T06:10:51;97322.34;;;8.60;100.00
70954;BME280;58618;47.490;8.736;2022-10-17T06:13:39;97330.72;;;8.72;100.00
70954;BME280;58618;47.490;8.736;2022-10-17T06:16:26;97330.25;;;8.75;100.00
70954;BME280;58618;47.490;8.736;2022-10-17T06:19:15;97334.00;;;8.89;100.00
70954;BME280;58618;47.490;8.736;2022-10-17T06:22:02;97338.09;;;9.98;100.00
70954;BME280;58618;47.490;8.736;2022-10-17T06:24:49;97345.13;;;10.49;100.00
70954;BME280;58618;47.490;8.736;2022-10-17T06:27:37;97353.94;;;11.36;100.00
70954;BME280;58618;47.490;8.736;2022-10-17T06:30:25;97353.47;;;12.10;100.00
70954;BME280;58618;47.490;8.736;2022-10-17T06:33:12;97360.28;;;12.75;98.55
70954;BME280;58618;47.490;8.736;2022-10-17T06:36:02;97363.19;;;13.28;97.01
70954;BME280;58618;47.490;8.736;2022-10-17T06:38:50;97361.22;;;13.87;96.18
70954;BME280;58618;47.490;8.736;2022-10-17T06:41:37;97362.94;;;14.31;89.63
70954;BME280;58618;47.490;8.736;2022-10-17T06:44:26;97358.50;;;14.60;90.77
70954;BME280;58618;47.490;8.736;2022-10-17T06:47:15;97375.41;;;14.82;89.26
70954;BME280;58618;47.490;8.736;2022-10-17T06:50:03;97388.50;;;15.56;86.08
70954;BME280;58618;47.490;8.736;2022-10-17T06:52:51;97383.41;;;15.84;82.63
70954;BME280;58618;47.490;8.736;2022-10-17T06:55:39;97394.38;;;16.13;82.45
70954;BME280;58618;47.490;8.736;2022-10-17T06:58:28;97393.97;;;16.38;80.08
70954;BME280;58618;47.490;8.736;2022-10-17T07:01:16;97406.06;;;16.62;78.80
70954;BME280;58618;47.490;8.736;2022-10-17T07:04:03;97400.88;;;16.89;76.91
70954;BME280;58618;47.490;8.736;2022-10-17T07:06:51;97400.84;;;17.16;76.97
70954;BME280;58618;47.490;8.736;2022-10-17T07:09:40;97402.97;;;17.14;76.49
70954;BME280;58618;47.490;8.736;2022-10-17T07:12:27;97409.31;;;17.36;76.03
70954;BME280;58618;47.490;8.736;2022-10-17T07:15:15;97412.69;;;17.50;75.87
70954;BME280;58618;47.490;8.736;2022-10-17T07:18:03;97415.75;;;17.52;78.01
70954;BME280;58618;47.490;8.736;2022-10-17T07:20:53;97420.03;;;17.84;73.81
70954;BME280;58618;47.490;8.736;2022-10-17T07:23:40;97411.91;;;17.85;73.14
70954;BME280;58618;47.490;8.736;2022-10-17T07:26:30;97425.34;;;17.43;74.20
70954;BME280;58618;47.490;8.736;2022-10-17T07:29:17;97422.81;;;17.51;75.72
70954;BME280;58618;47.490;8.736;2022-10-17T07:32:04;97426.66;;;17.54;75.51
70954;BME280;58618;47.490;8.736;2022-10-17T07:34:53;97430.75;;;17.60;76.14
70954;BME280;58618;47.490;8.736;2022-10-17T07:37:40;97423.53;;;17.79;74.37
70954;BME280;58618;47.490;8.736;2022-10-17T07:40:28;97429.91;;;17.73;74.38
70954;BME280;58618;47.490;8.736;2022-10-17T07:43:16;97425.41;;;17.87;73.69
70954;BME280;58618;47.490;8.736;2022-10-17T07:46:04;97413.38;;;18.00;73.44
70954;BME280;58618;47.490;8.736;2022-10-17T07:48:53;97424.22;;;17.93;73.85
70954;BME280;58618;47.490;8.736;2022-10-17T07:51:40;97430.53;;;18.14;72.63
70954;BME280;58618;47.490;8.736;2022-10-17T07:54:28;97428.16;;;18.27;72.92
70954;BME280;58618;47.490;8.736;2022-10-17T07:57:15;97426.63;;;17.81;77.25
70954;BME280;58618;47.490;8.736;2022-10-17T08:00:05;97423.63;;;17.74;75.77
70954;BME280;58618;47.490;8.736;2022-10-17T08:02:52;97438.47;;;17.65;76.63
70954;BME280;58618;47.490;8.736;2022-10-17T08:05:40;97428.41;;;17.58;76.31
70954;BME280;58618;47.490;8.736;2022-10-17T08:08:27;97442.31;;;17.67;77.73
70954;BME280;58618;47.490;8.736;2022-10-17T08:11:15;97443.09;;;17.68;77.20
70954;BME280;58618;47.490;8.736;2022-10-17T08:14:02;97448.28;;;17.82;77.09
70954;BME280;58618;47.490;8.736;2022-10-17T08:16:53;97457.28;;;17.76;78.44
70954;BME280;58618;47.490;8.736;2022-10-17T08:19:40;97440.78;;;17.89;77.24
70954;BME280;58618;47.490;8.736;2022-10-17T08:22:27;97448.63;;;17.89;78.09
70954;BME280;58618;47.490;8.736;2022-10-17T08:25:15;97447.16;;;17.96;77.29
70954;BME280;58618;47.490;8.736;2022-10-17T08:28:02;97444.56;;;17.60;79.96
70954;BME280;58618;47.490;8.736;2022-10-17T08:30:50;97445.06;;;17.21;81.94
70954;BME280;58618;47.490;8.736;2022-10-17T08:33:39;97441.19;;;17.33;81.83
70954;BME280;58618;47.490;8.736;2022-10-17T08:36:26;97448.75;;;17.20;82.61
70954;BME280;58618;47.490;8.736;2022-10-17T08:39:14;97443.94;;;17.00;83.72
70954;BME280;58618;47.490;8.736;2022-10-17T08:42:18;97446.31;;;16.83;85.75
70954;BME280;58618;47.490;8.736;2022-10-17T08:45:18;97455.09;;;16.87;85.95
70954;BME280;58618;47.490;8.736;2022-10-17T08:48:10;97449.72;;;16.70;86.26
70954;BME280;58618;47.490;8.736;2022-10-17T08:51:02;97454.31;;;16.59;88.72
70954;BME280;58618;47.490;8.736;2022-10-17T08:53:55;97460.69;;;16.34;89.97
70954;BME280;58618;47.490;8.736;2022-10-17T08:56:48;97457.78;;;16.36;91.02
70954;BME280;58618;47.490;8.736;2022-10-17T08:59:36;97455.00;;;16.32;92.31
70954;BME280;58618;47.490;8.736;2022-10-17T09:02:38;97461.34;;;16.26;93.04
70954;BME280;58618;47.490;8.736;2022-10-17T09:05:40;97460.00;;;16.29;94.09
70954;BME280;58618;47.490;8.736;2022-10-17T09:08:37;97463.50;;;16.38;93.84
70954;BME280;58618;47.490;8.736;2022-10-17T09:11:42;97462.47;;;16.53;93.51
70954;BME280;58618;47.490;8.736;2022-10-17T09:15:02;97459.22;;;16.61;93.13
70954;BME280;58618;47.490;8.736;2022-10-17T09:17:55;97453.19;;;16.79;93.32
70954;BME280;58618;47.490;8.736;2022-10-17T09:20:47;97457.03;;;16.81;91.38
70954;BME280;58618;47.490;8.736;2022-10-17T09:23:41;97457.63;;;16.92;88.21
70954;BME280;58618;47.490;8.736;2022-10-17T09:26:30;97459.06;;;16.98;91.71
70954;BME280;58618;47.490;8.736;2022-10-17T09:29:21;97459.84;;;16.99;92.34
70954;BME280;58618;47.490;8.736;2022-10-17T09:32:13;97458.19;;;17.03;93.29
70954;BME280;58618;47.490;8.736;2022-10-17T09:35:04;97466.22;;;17.06;90.49
70954;BME280;58618;47.490;8.736;2022-10-17T09:37:52;97463.03;;;17.09;91.41
70954;BME280;58618;47.490;8.736;2022-10-17T09:40:42;97472.81;;;17.17;90.24
70954;BME280;58618;47.490;8.736;2022-10-17T09:43:30;97465.34;;;17.24;91.02
70954;BME280;58618;47.490;8.736;2022-10-17T09:46:23;97464.38;;;17.20;90.16
70954;BME280;58618;47.490;8.736;2022-10-17T09:49:16;97472.38;;;17.24;92.03
70954;BME280;58618;47.490;8.736;2022-10-17T09:52:08;97474.81;;;17.20;90.09
70954;BME280;58618;47.490;8.736;2022-10-17T09:55:00;97474.72;;;17.25;92.10
70954;BME280;58618;47.490;8.736;2022-10-17T09:57:55;97462.44;;;17.40;92.47
70954;BME280;58618;47.490;8.736;2022-10-17T10:00:44;97462.97;;;17.50;90.00
70954;BME280;58618;47.490;8.736;2022-10-17T10:03:32;97466.09;;;17.52;90.01
70954;BME280;58618;47.490;8.736;2022-10-17T10:06:20;97464.56;;;17.65;88.56
70954;BME280;58618;47.490;8.736;2022-10-17T10:09:20;97472.16;;;17.75;89.34
70954;BME280;58618;47.490;8.736;2022-10-17T10:12:16;97468.78;;;17.75;89.46
70954;BME280;58618;47.490;8.736;2022-10-17T10:15:32;97482.00;;;17.78;91.17
70954;BME280;58618;47.490;8.736;2022-10-17T10:18:32;97468.00;;;17.74;92.33
70954;BME280;58618;47.490;8.736;2022-10-17T10:21:22;97480.72;;;17.89;91.55
70954;BME280;58618;47.490;8.736;2022-10-17T10:24:12;97479.16;;;17.88;90.59
70954;BME280;58618;47.490;8.736;2022-10-17T10:27:01;97478.00;;;17.94;91.22
70954;BME280;58618;47.490;8.736;2022-10-17T10:29:51;97473.53;;;17.95;90.40
70954;BME280;58618;47.490;8.736;2022-10-17T10:32:44;97475.03;;;18.09;90.01
70954;BME280;58618;47.490;8.736;2022-10-17T10:35:34;97464.59;;;18.09;88.01
70954;BME280;58618;47.490;8.736;2022-10-17T10:38:23;97476.09;;;18.31;89.03
70954;BME280;58618;47.490;8.736;2022-10-17T10:41:10;97472.44;;;18.32;84.52
70954;BME280;58618;47.490;8.736;2022-10-17T10:43:58;97475.28;;;18.44;86.58
70954;BME280;58618;47.490;8.736;2022-10-17T10:46:45;97477.53;;;18.59;82.17
70954;BME280;58618;47.490;8.736;2022-10-17T10:49:34;97466.81;;;18.69;76.82
70954;BME280;58618;47.490;8.736;2022-10-17T10:52:30;97478.47;;;18.94;83.13
70954;BME280;58618;47.490;8.736;2022-10-17T10:55:25;97480.50;;;19.06;82.11
70954;BME280;58618;47.490;8.736;2022-10-17T10:58:38;97471.66;;;19.24;81.26
70954;BME280;58618;47.490;8.736;2022-10-17T11:01:29;97460.56;;;19.27;74.42
70954;BME280;58618;47.490;8.736;2022-10-17T11:04:25;97459.50;;;19.36;77.26
70954;BME280;58618;47.490;8.736;2022-10-17T11:07:19;97453.72;;;19.48;70.46
70954;BME280;58618;47.490;8.736;2022-10-17T11:10:12;97454.34;;;19.54;73.79
70954;BME280;58618;47.490;8.736;2022-10-17T11:13:04;97443.25;;;19.57;75.68
70954;BME280;58618;47.490;8.736;2022-10-17T11:15:58;97449.13;;;19.79;77.77
70954;BME280;58618;47.490;8.736;2022-10-17T11:18:50;97448.66;;;19.95;69.81
70954;BME280;58618;47.490;8.736;2022-10-17T11:21:42;97445.88;;;20.17;73.11
70954;BME280;58618;47.490;8.736;2022-10-17T11:24:37;97446.00;;;20.20;67.75
70954;BME280;58618;47.490;8.736;2022-10-17T11:27:28;97447.69;;;20.25;67.67
70954;BME280;58618;47.490;8.736;2022-10-17T11:30:16;97444.31;;;20.33;73.21
70954;BME280;58618;47.490;8.736;2022-10-17T11:33:04;97446.13;;;20.41;68.66
70954;BME280;58618;47.490;8.736;2022-10-17T11:35:55;97444.00;;;20.43;69.15
70954;BME280;58618;47.490;8.736;2022-10-17T11:38:47;97445.94;;;20.63;70.55
70954;BME280;58618;47.490;8.736;2022-10-17T11:41:41;97438.34;;;20.71;67.44
70954;BME280;58618;47.490;8.736;2022-10-17T11:44:33;97436.19;;;20.73;63.65
70954;BME280;58618;47.490;8.736;2022-10-17T11:47:28;97441.72;;;20.80;66.46
70954;BME280;58618;47.490;8.736;2022-10-17T11:50:22;97433.66;;;20.85;67.97
70954;BME280;58618;47.490;8.736;2022-10-17T11:53:13;97440.09;;;20.96;67.87
70954;BME280;58618;47.490;8.736;2022-10-17T11:56:01;97429.06;;;20.82;63.66
70954;BME280;58618;47.490;8.736;2022-10-17T11:58:56;97430.72;;;20.86;63.79
70954;BME280;58618;47.490;8.736;2022-10-17T12:01:51;97429.59;;;20.96;64.12
70954;BME280;58618;47.490;8.736;2022-10-17T12:04:51;97430.44;;;20.79;71.01
70954;BME280;58618;47.490;8.736;2022-10-17T12:07:45;97427.50;;;20.81;71.42
70954;BME280;58618;47.490;8.736;2022-10-17T12:10:42;97422.75;;;20.83;69.93
70954;BME280;58618;47.490;8.736;2022-10-17T12:13:56;97415.47;;;20.80;63.27
70954;BME280;58618;47.490;8.736;2022-10-17T12:16:44;97418.81;;;20.89;65.97
70954;BME280;58618;47.490;8.736;2022-10-17T12:19:33;97420.84;;;20.92;64.27
70954;BME280;58618;47.490;8.736;2022-10-17T12:22:23;97413.09;;;20.95;66.92
70954;BME280;58618;47.490;8.736;2022-10-17T12:25:17;97414.94;;;20.95;62.33
70954;BME280;58618;47.490;8.736;2022-10-17T12:28:12;97414.16;;;21.03;63.36
70954;BME280;58618;47.490;8.736;2022-10-17T12:31:06;97402.66;;;21.16;72.47
70954;BME280;58618;47.490;8.736;2022-10-17T12:33:59;97410.09;;;21.14;72.54
70954;BME280;58618;47.490;8.736;2022-10-17T12:36:47;97403.28;;;21.13;63.19
70954;BME280;58618;47.490;8.736;2022-10-17T12:39:43;97403.28;;;21.13;63.38
70954;BME280;58618;47.490;8.736;2022-10-17T12:42:32;97411.00;;;21.18;63.27
70954;BME280;58618;47.490;8.736;2022-10-17T12:45:48;97404.47;;;21.24;62.49
70954;BME280;58618;47.490;8.736;2022-10-17T12:49:01;97406.44;;;21.27;61.53
70954;BME280;58618;47.490;8.736;2022-10-17T12:55:23;97401.00;;;21.32;61.82
70954;BME280;58618;47.490;8.736;2022-10-17T12:58:13;97397.31;;;21.33;63.46
70954;BME280;58618;47.490;8.736;2022-10-17T13:01:03;97392.94;;;21.37;61.35
70954;BME280;58618;47.490;8.736;2022-10-17T13:03:53;97401.91;;;21.36;61.95
70954;BME280;58618;47.490;8.736;2022-10-17T13:06:46;97391.88;;;21.38;61.90
70954;BME280;58618;47.490;8.736;2022-10-17T13:09:35;97396.66;;;21.36;63.04
70954;BME280;58618;47.490;8.736;2022-10-17T13:12:25;97404.72;;;21.31;66.13
70954;BME280;58618;47.490;8.736;2022-10-17T13:15:16;97394.88;;;21.28;70.18
70954;BME280;58618;47.490;8.736;2022-10-17T13:18:04;97399.75;;;21.38;70.03
70954;BME280;58618;47.490;8.736;2022-10-17T13:20:57;97398.69;;;21.31;69.91
70954;BME280;58618;47.490;8.736;2022-10-17T13:23:46;97401.66;;;21.29;64.46
70954;BME280;58618;47.490;8.736;2022-10-17T13:26:36;97391.59;;;21.31;60.89
70954;BME280;58618;47.490;8.736;2022-10-17T13:29:24;97392.94;;;21.37;68.94
70954;BME280;58618;47.490;8.736;2022-10-17T13:32:13;97400.78;;;21.25;61.18
70954;BME280;58618;47.490;8.736;2022-10-17T13:35:05;97400.63;;;21.22;67.91
70954;BME280;58618;47.490;8.736;2022-10-17T13:37:53;97400.28;;;20.94;72.24
70954;BME280;58618;47.490;8.736;2022-10-17T13:40:43;97395.56;;;20.87;73.74
70954;BME280;58618;47.490;8.736;2022-10-17T13:43:30;97399.75;;;20.80;73.07
70954;BME280;58618;47.490;8.736;2022-10-17T13:46:26;97391.28;;;20.74;73.69
70954;BME280;58618;47.490;8.736;2022-10-17T13:49:19;97398.31;;;20.61;75.88
70954;BME280;58618;47.490;8.736;2022-10-17T13:52:16;97388.81;;;20.40;78.96
70954;BME280;58618;47.490;8.736;2022-10-17T13:55:07;97395.00;;;20.35;77.74
70954;BME280;58618;47.490;8.736;2022-10-17T13:58:08;97399.47;;;20.35;74.83
70954;BME280;58618;47.490;8.736;2022-10-17T14:00:56;97376.66;;;20.18;75.86
70954;BME280;58618;47.490;8.736;2022-10-17T14:03:45;97388.41;;;20.12;76.63
70954;BME280;58618;47.490;8.736;2022-10-17T14:06:33;97380.09;;;20.01;78.92
70954;BME280;58618;47.490;8.736;2022-10-17T14:09:23;97387.97;;;19.93;79.39
70954;BME280;58618;47.490;8.736;2022-10-17T14:12:12;97381.97;;;19.83;79.39
70954;BME280;58618;47.490;8.736;2022-10-17T14:15:04;97372.59;;;19.65;79.87
70954;BME280;58618;47.490;8.736;2022-10-17T14:17:54;97377.38;;;19.55;81.22
70954;BME280;58618;47.490;8.736;2022-10-17T14:20:45;97371.31;;;19.37;81.68
70954;BME280;58618;47.490;8.736;2022-10-17T14:23:36;97385.31;;;19.41;84.29
70954;BME280;58618;47.490;8.736;2022-10-17T14:26:24;97377.34;;;19.29;84.11
70954;BME280;58618;47.490;8.736;2022-10-17T14:29:20;97381.47;;;19.30;85.10
70954;BME280;58618;47.490;8.736;2022-10-17T14:32:12;97380.53;;;19.26;82.56
70954;BME280;58618;47.490;8.736;2022-10-17T14:35:02;97388.97;;;19.14;85.39
70954;BME280;58618;47.490;8.736;2022-10-17T14:37:52;97375.75;;;19.02;85.13
70954;BME280;58618;47.490;8.736;2022-10-17T14:40:48;97378.53;;;19.06;83.79
70954;BME280;58618;47.490;8.736;2022-10-17T14:43:36;97382.78;;;18.93;84.37
70954;BME280;58618;47.490;8.736;2022-10-17T14:46:24;97388.78;;;18.85;84.47
70954;BME280;58618;47.490;8.736;2022-10-17T14:49:17;97381.22;;;18.83;82.82
70954;BME280;58618;47.490;8.736;2022-10-17T14:52:24;97384.47;;;18.80;82.10
70954;BME280;58618;47.490;8.736;2022-10-17T14:55:21;97391.78;;;18.61;84.23
70954;BME280;58618;47.490;8.736;2022-10-17T14:58:15;97389.38;;;18.51;84.90
70954;BME280;58618;47.490;8.736;2022-10-17T15:01:03;97393.09;;;18.50;83.61
70954;BME280;58618;47.490;8.736;2022-10-17T15:03:50;97387.81;;;18.41;83.50
70954;BME280;58618;47.490;8.736;2022-10-17T15:06:39;97390.97;;;18.30;84.54
70954;BME280;58618;47.490;8.736;2022-10-17T15:09:26;97379.25;;;18.19;85.53